Time;durP1;ratioP1;P1;durP2;ratioP2;P2;SDS_P1;SDS_P2;PMS_P1;PMS_P2;Temp;Humidity;BMP_temperature;BMP_pressure;BME280_temperature;BME280_humidity;BME280_pressure;Samples;Min_cycle;Max_cycle;Signal;HPM_P1;HPM_P2
2020/12/13 00:01:12;;;;;;;44.47;35.55;;;6.30;99.90;;;;;;5076981;28;20169;-70
2020/12/13 00:03:37;;;;;;;58.03;41.00;;;6.30;99.90;;;;;;5076290;28;20180;-70
2020/12/13 00:06:03;;;;;;;46.27;36.47;;;6.30;99.90;;;;;;5076296;28;20254;-70
2020/12/13 00:08:29;;;;;;;56.70;41.10;;;6.30;99.90;;;;;;5076274;28;20655;-70
2020/12/13 00:10:56;;;;;;;62.63;46.50;;;6.20;99.90;;;;;;5076550;28;20175;-69
2020/12/13 00:13:23;;;;;;;57.03;40.05;;;6.10;99.90;;;;;;5076652;28;20161;-70
2020/12/13 00:15:48;;;;;;;62.03;43.97;;;6.10;99.90;;;;;;5076621;28;20193;-70
2020/12/13 00:18:14;;;;;;;56.93;41.30;;;6.10;99.90;;;;;;5075924;28;20248;-70
2020/12/13 00:20:39;;;;;;;56.87;40.20;;;6.10;99.90;;;;;;5076289;28;20177;-70
2020/12/13 00:23:05;;;;;;;60.93;39.47;;;6.10;99.90;;;;;;5076203;28;20172;-70
2020/12/13 00:25:30;;;;;;;60.20;39.03;;;6.10;99.90;;;;;;5076107;28;20672;-70
2020/12/13 00:27:56;;;;;;;50.80;39.57;;;6.10;99.90;;;;;;5076407;28;20238;-70
2020/12/13 00:30:21;;;;;;;61.70;39.83;;;6.20;99.90;;;;;;5075597;28;20171;-70
2020/12/13 00:32:47;;;;;;;59.40;41.67;;;6.10;99.90;;;;;;5074498;28;20169;-70
2020/12/13 00:35:14;;;;;;;58.40;39.20;;;6.10;99.90;;;;;;5075650;28;20196;-70
2020/12/13 00:37:39;;;;;;;56.30;38.45;;;6.10;99.90;;;;;;5076000;28;20177;-70
2020/12/13 00:40:05;;;;;;;62.53;44.30;;;6.10;99.90;;;;;;5075815;28;20536;-69
2020/12/13 00:42:31;;;;;;;60.53;38.67;;;6.00;99.90;;;;;;5076055;28;20185;-70
2020/12/13 00:44:56;;;;;;;60.10;38.73;;;6.00;99.90;;;;;;5076294;28;20161;-70
2020/12/13 00:47:22;;;;;;;65.07;42.03;;;6.00;99.90;;;;;;5075401;28;20193;-70
2020/12/13 00:49:47;;;;;;;63.93;43.17;;;6.00;99.90;;;;;;5075456;28;20624;-70
2020/12/13 00:52:13;;;;;;;64.40;46.00;;;6.10;99.90;;;;;;5075777;28;20165;-70
2020/12/13 00:54:38;;;;;;;59.17;43.40;;;6.10;99.90;;;;;;5075916;28;20192;-70
2020/12/13 00:57:04;;;;;;;61.37;43.60;;;6.10;99.90;;;;;;5075731;28;20193;-70
2020/12/13 00:59:30;;;;;;;58.97;43.27;;;6.10;99.90;;;;;;5075105;28;20252;-70
2020/12/13 01:01:55;;;;;;;53.90;36.67;;;6.10;99.90;;;;;;5074993;28;20173;-70
2020/12/13 01:04:22;;;;;;;54.73;38.77;;;6.20;99.90;;;;;;5075059;28;20227;-70
2020/12/13 01:06:48;;;;;;;70.22;42.20;;;6.20;99.90;;;;;;5075261;28;20205;-70
2020/12/13 01:09:13;;;;;;;56.67;38.13;;;6.20;99.90;;;;;;5075027;28;20223;-70
2020/12/13 01:11:39;;;;;;;59.60;40.20;;;6.30;99.90;;;;;;5075290;28;20177;-70
2020/12/13 01:14:04;;;;;;;50.50;39.97;;;6.30;99.90;;;;;;5075327;28;20204;-70
2020/12/13 01:16:31;;;;;;;57.60;40.07;;;6.30;99.90;;;;;;5075298;28;20193;-70
2020/12/13 01:18:59;;;;;;;58.75;47.85;;;6.30;99.90;;;;;;5074745;28;20534;-70
2020/12/13 01:21:27;;;;;;;66.57;44.42;;;6.30;99.90;;;;;;5075080;28;20169;-70
2020/12/13 01:23:53;;;;;;;56.03;40.80;;;6.20;99.90;;;;;;5075138;28;20206;-70
2020/12/13 01:26:20;;;;;;;51.33;36.67;;;6.20;99.90;;;;;;5075169;28;20215;-70
2020/12/13 01:28:47;;;;;;;54.33;39.15;;;6.20;99.90;;;;;;5075026;28;20600;-70
2020/12/13 01:31:15;;;;;;;63.42;43.53;;;6.20;99.90;;;;;;5074645;28;20172;-70
2020/12/13 01:33:42;;;;;;;53.35;41.17;;;6.20;99.90;;;;;;5074577;28;20261;-70
2020/12/13 01:36:19;;;;;;;59.45;38.80;;;6.30;99.90;;;;;;5074755;28;20189;-70
2020/12/13 01:38:45;;;;;;;55.65;38.78;;;6.30;99.90;;;;;;5074772;28;20177;-70
2020/12/13 01:41:11;;;;;;;59.15;38.58;;;6.20;99.90;;;;;;5074977;28;20173;-70
2020/12/13 01:43:37;;;;;;;59.30;41.35;;;6.20;99.90;;;;;;5074359;28;20177;-70
2020/12/13 01:46:03;;;;;;;54.43;39.93;;;6.10;99.90;;;;;;5074676;28;20525;-70
2020/12/13 01:48:29;;;;;;;54.40;37.10;;;6.20;99.90;;;;;;5074289;28;20247;-70
2020/12/13 01:51:09;;;;;;;59.00;42.10;;;6.20;99.90;;;;;;5074809;28;20407;-70
2020/12/13 01:53:37;;;;;;;55.58;38.13;;;6.20;99.90;;;;;;5074811;28;20496;-70
2020/12/13 01:56:04;;;;;;;58.75;41.22;;;6.20;99.90;;;;;;5074076;28;20193;-70
2020/12/13 01:58:35;;;;;;;64.47;39.80;;;6.20;99.90;;;;;;5074170;28;20612;-70
2020/12/13 02:01:05;;;;;;;61.83;38.60;;;6.20;99.90;;;;;;5074587;28;20611;-70
2020/12/13 02:03:37;;;;;;;63.80;42.83;;;6.10;99.90;;;;;;5074528;28;20173;-70
2020/12/13 02:06:09;;;;;;;59.55;40.35;;;6.10;99.90;;;;;;5074180;28;20212;-70
2020/12/13 02:08:40;;;;;;;55.97;42.55;;;6.20;99.90;;;;;;5073742;28;20185;-70
2020/12/13 02:11:07;;;;;;;68.07;42.80;;;6.20;99.90;;;;;;5074111;28;20173;-70
2020/12/13 02:13:33;;;;;;;70.20;43.17;;;6.20;99.90;;;;;;5074201;28;20251;-70
2020/12/13 02:15:59;;;;;;;65.07;40.30;;;6.20;99.90;;;;;;5073961;28;20560;-70
2020/12/13 02:18:28;;;;;;;57.10;40.67;;;6.30;99.90;;;;;;5074061;28;20161;-70
2020/12/13 02:20:56;;;;;;;53.90;39.13;;;6.20;99.90;;;;;;5073894;28;20183;-70
2020/12/13 02:23:22;;;;;;;56.03;36.08;;;6.20;99.90;;;;;;5073587;28;20310;-70
2020/12/13 02:25:47;;;;;;;58.00;37.88;;;6.20;99.90;;;;;;5073300;28;20205;-69
2020/12/13 02:28:13;;;;;;;57.23;37.77;;;6.20;99.90;;;;;;5074080;28;20695;-70
2020/12/13 02:30:39;;;;;;;57.57;38.00;;;6.30;99.90;;;;;;5073365;28;20169;-70
2020/12/13 02:33:05;;;;;;;52.73;38.63;;;6.30;99.90;;;;;;5074232;28;20427;-70
2020/12/13 02:35:31;;;;;;;63.45;41.70;;;6.40;99.90;;;;;;5074189;28;20544;-70
2020/12/13 02:37:57;;;;;;;56.57;41.87;;;6.40;99.90;;;;;;5073617;28;20173;-70
2020/12/13 02:40:22;;;;;;;51.23;38.80;;;6.40;99.90;;;;;;5073617;28;20515;-70
2020/12/13 02:42:48;;;;;;;62.70;40.93;;;6.40;99.90;;;;;;5073813;28;20172;-70
2020/12/13 02:45:14;;;;;;;51.87;35.13;;;6.40;99.90;;;;;;5073783;28;20266;-70
2020/12/13 02:47:39;;;;;;;56.00;39.87;;;6.40;99.90;;;;;;5073692;28;20548;-70
2020/12/13 02:50:05;;;;;;;53.53;38.70;;;6.40;99.90;;;;;;5072946;28;20212;-70
2020/12/13 02:52:31;;;;;;;56.13;37.53;;;6.40;99.90;;;;;;5072254;28;20198;-70
2020/12/13 02:54:56;;;;;;;54.07;39.30;;;6.40;99.90;;;;;;5073615;28;20173;-70
2020/12/13 02:57:22;;;;;;;57.87;38.27;;;6.40;99.90;;;;;;5073220;28;20199;-70
2020/12/13 02:59:48;;;;;;;57.80;37.90;;;6.40;99.90;;;;;;5073228;28;20172;-70
2020/12/13 03:02:13;;;;;;;67.63;40.33;;;6.40;99.90;;;;;;5073914;28;20169;-70
2020/12/13 03:04:39;;;;;;;54.90;37.23;;;6.40;99.90;;;;;;5073678;28;20252;-70
2020/12/13 03:07:04;;;;;;;54.60;39.20;;;6.40;99.90;;;;;;5073257;28;20201;-70
2020/12/13 03:09:30;;;;;;;54.23;38.67;;;6.40;99.90;;;;;;5073131;28;20175;-70
2020/12/13 03:11:55;;;;;;;55.90;41.80;;;6.50;99.90;;;;;;5073519;28;20208;-70
2020/12/13 03:14:21;;;;;;;54.00;37.07;;;6.50;99.90;;;;;;5073309;28;20223;-70
2020/12/13 03:16:47;;;;;;;66.77;40.57;;;6.50;99.90;;;;;;5073087;28;20204;-70
2020/12/13 03:19:13;;;;;;;63.10;42.67;;;6.50;99.90;;;;;;5073560;28;20174;-70
2020/12/13 03:21:38;;;;;;;47.57;41.00;;;6.50;99.90;;;;;;5073040;28;20484;-70
2020/12/13 03:24:04;;;;;;;63.17;39.33;;;6.50;99.90;;;;;;5073329;28;20169;-70
2020/12/13 03:26:29;;;;;;;64.63;38.13;;;6.50;99.90;;;;;;5073296;28;20205;-70
2020/12/13 03:28:55;;;;;;;67.70;40.20;;;6.50;99.90;;;;;;5073165;28;20173;-70
2020/12/13 03:31:20;;;;;;;67.80;42.00;;;6.40;99.90;;;;;;5073233;28;20197;-70
2020/12/13 03:33:47;;;;;;;62.90;44.00;;;6.40;99.90;;;;;;5073340;28;20185;-70
2020/12/13 03:36:13;;;;;;;62.85;39.85;;;6.40;99.90;;;;;;5075238;28;20546;-70
2020/12/13 03:38:39;;;;;;;61.50;42.17;;;6.40;99.90;;;;;;5076705;28;20246;-70
2020/12/13 03:41:05;;;;;;;61.23;41.30;;;6.40;99.90;;;;;;5077135;28;20611;-70
2020/12/13 03:43:30;;;;;;;59.20;42.80;;;6.30;99.90;;;;;;5076974;28;20174;-70
2020/12/13 03:45:56;;;;;;;74.30;42.10;;;6.30;99.90;;;;;;5076780;28;20299;-70
2020/12/13 03:48:21;;;;;;;60.17;41.73;;;6.30;99.90;;;;;;5077171;28;20511;-70
2020/12/13 03:50:47;;;;;;;57.73;39.83;;;6.30;99.90;;;;;;5076437;28;20254;-70
2020/12/13 03:53:14;;;;;;;66.60;40.53;;;6.30;99.90;;;;;;5076651;28;20165;-70
2020/12/13 03:55:41;;;;;;;59.92;40.42;;;6.30;99.90;;;;;;5076561;28;20223;-70
2020/12/13 03:58:07;;;;;;;63.17;42.97;;;6.30;99.90;;;;;;5076389;28;20169;-70
2020/12/13 04:00:34;;;;;;;67.30;42.63;;;6.30;99.90;;;;;;5076756;28;20575;-70
2020/12/13 04:03:02;;;;;;;71.03;41.85;;;6.30;99.90;;;;;;5075836;28;20181;-70
2020/12/13 04:05:27;;;;;;;60.65;39.25;;;6.30;99.90;;;;;;5076212;28;20204;-70
2020/12/13 04:07:53;;;;;;;68.33;40.90;;;6.30;99.90;;;;;;5076123;28;20247;-70
2020/12/13 04:10:19;;;;;;;69.10;43.00;;;6.30;99.90;;;;;;5076357;28;20174;-70
2020/12/13 04:12:46;;;;;;;63.13;43.05;;;6.30;99.90;;;;;;5076472;28;20169;-70
2020/12/13 04:15:12;;;;;;;53.50;39.25;;;6.30;99.90;;;;;;5076496;28;20165;-70
2020/12/13 04:17:38;;;;;;;67.63;43.80;;;6.30;99.90;;;;;;5076116;28;20165;-70
2020/12/13 04:20:07;;;;;;;63.37;39.10;;;6.30;99.90;;;;;;5075947;28;20310;-70
2020/12/13 04:22:33;;;;;;;57.75;36.05;;;6.20;99.90;;;;;;5076180;28;20180;-70
2020/12/13 04:24:59;;;;;;;56.33;38.67;;;6.30;99.90;;;;;;5076215;28;20173;-70
2020/12/13 04:27:25;;;;;;;57.37;36.27;;;6.20;99.90;;;;;;5076171;28;20202;-70
2020/12/13 04:29:51;;;;;;;69.20;41.47;;;6.20;99.90;;;;;;5075690;28;20174;-71
2020/12/13 04:32:16;;;;;;;64.17;38.70;;;6.20;99.90;;;;;;5075828;28;20916;-70
2020/12/13 04:34:42;;;;;;;59.73;42.67;;;6.10;99.90;;;;;;5075847;28;20181;-70
2020/12/13 04:37:09;;;;;;;60.88;40.58;;;6.10;99.90;;;;;;5076065;28;20291;-70
2020/12/13 04:39:34;;;;;;;52.78;37.25;;;6.20;99.90;;;;;;5075502;28;20164;-70
2020/12/13 04:42:03;;;;;;;55.53;38.73;;;6.20;99.90;;;;;;5076084;28;20635;-70
2020/12/13 04:44:30;;;;;;;60.05;37.00;;;6.20;99.90;;;;;;5075720;28;20173;-71
2020/12/13 04:47:00;;;;;;;53.97;39.58;;;6.10;99.90;;;;;;5074768;28;20213;-70
2020/12/13 04:49:29;;;;;;;59.20;35.78;;;6.10;99.90;;;;;;5075659;28;20222;-70
2020/12/13 04:51:58;;;;;;;48.88;35.95;;;6.20;99.90;;;;;;5075734;28;20632;-70
2020/12/13 04:54:26;;;;;;;59.17;36.35;;;6.20;99.90;;;;;;5075413;28;20164;-70
2020/12/13 04:56:53;;;;;;;59.85;37.42;;;6.30;99.90;;;;;;5075222;28;20197;-70
2020/12/13 04:59:18;;;;;;;54.85;36.22;;;6.30;99.90;;;;;;5075138;28;20320;-70
2020/12/13 05:01:45;;;;;;;49.17;41.37;;;6.30;99.90;;;;;;5075326;28;20270;-70
2020/12/13 05:04:12;;;;;;;47.40;36.05;;;6.30;99.90;;;;;;5075456;28;20211;-70
2020/12/13 05:06:42;;;;;;;50.22;35.33;;;6.30;99.90;;;;;;5075574;28;20317;-70
2020/12/13 05:09:09;;;;;;;50.85;38.70;;;6.30;99.90;;;;;;5075348;28;20184;-70
2020/12/13 05:11:37;;;;;;;55.10;34.60;;;6.40;99.90;;;;;;5075603;28;20176;-70
2020/12/13 05:14:03;;;;;;;59.08;35.30;;;6.40;99.90;;;;;;5075024;28;20569;-70
2020/12/13 05:16:29;;;;;;;55.10;35.97;;;6.40;99.90;;;;;;5074819;28;20276;-70
2020/12/13 05:18:54;;;;;;;51.03;35.57;;;6.40;99.90;;;;;;5074919;28;20172;-70
2020/12/13 05:21:21;;;;;;;46.70;32.67;;;6.40;99.90;;;;;;5075211;28;20173;-70
2020/12/13 05:23:48;;;;;;;48.35;35.90;;;6.40;99.90;;;;;;5075322;28;20561;-70
2020/12/13 05:26:15;;;;;;;51.25;41.38;;;6.40;99.90;;;;;;5075217;28;20555;-71
2020/12/13 05:28:47;;;;;;;53.40;36.97;;;6.40;99.90;;;;;;5074564;28;20161;-71
2020/12/13 05:31:18;;;;;;;48.67;35.85;;;6.30;99.90;;;;;;5074869;28;20169;-70
2020/12/13 05:33:49;;;;;;;63.30;39.00;;;6.30;99.90;;;;;;5074620;28;20177;-70
2020/12/13 05:36:17;;;;;;;48.85;35.28;;;6.30;99.90;;;;;;5074997;28;20197;-70
2020/12/13 05:38:43;;;;;;;50.20;35.40;;;6.30;99.90;;;;;;5074966;28;20177;-70
2020/12/13 05:41:11;;;;;;;48.80;30.77;;;6.40;99.90;;;;;;5074651;28;20169;-70
2020/12/13 05:44:03;;;;;;;42.75;33.25;;;6.40;99.90;;;;;;5074888;28;20407;-70
2020/12/13 05:46:59;;;;;;;47.17;32.25;;;6.50;99.90;;;;;;5074672;28;20280;-70
2020/12/13 05:52:11;;;;;;;45.67;32.95;;;6.50;99.90;;;;;;5074690;28;20184;-70
2020/12/13 05:54:37;;;;;;;50.63;33.77;;;6.50;99.90;;;;;;5074555;28;20162;-70
2020/12/13 05:57:03;;;;;;;41.87;33.07;;;6.50;99.90;;;;;;5074587;28;20280;-70
2020/12/13 05:59:30;;;;;;;53.75;38.78;;;6.50;99.90;;;;;;5073328;28;20168;-70
2020/12/13 06:02:01;;;;;;;48.28;35.08;;;6.50;99.90;;;;;;5074060;28;20169;-70
2020/12/13 06:04:29;;;;;;;43.88;36.00;;;6.50;99.90;;;;;;5074371;28;20177;-70
2020/12/13 06:06:57;;;;;;;49.22;34.17;;;6.50;99.90;;;;;;5074158;28;20205;-70
2020/12/13 06:09:38;;;;;;;49.70;35.85;;;6.50;99.90;;;;;;5074048;28;20166;-70
2020/12/13 06:12:13;;;;;;;49.85;36.78;;;6.50;99.90;;;;;;5074492;28;20659;-70
2020/12/13 06:14:41;;;;;;;48.22;36.15;;;6.50;99.90;;;;;;5073984;28;20169;-70
2020/12/13 06:17:08;;;;;;;49.63;37.83;;;6.60;99.90;;;;;;5074044;28;20234;-70
2020/12/13 06:19:36;;;;;;;49.15;33.33;;;6.60;99.90;;;;;;5073693;28;20174;-70
2020/12/13 06:22:03;;;;;;;52.45;34.05;;;6.60;99.90;;;;;;5074095;28;20177;-70
2020/12/13 06:24:30;;;;;;;45.45;33.47;;;6.60;99.90;;;;;;5074052;28;20497;-70
2020/12/13 06:26:57;;;;;;;48.95;33.97;;;6.60;99.10;;;;;;5073691;28;20211;-70
2020/12/13 06:29:25;;;;;;;50.15;35.90;;;6.60;98.50;;;;;;5073763;28;20232;-70
2020/12/13 06:31:52;;;;;;;43.55;36.28;;;6.60;97.80;;;;;;5073918;28;20216;-70
2020/12/13 06:34:18;;;;;;;54.63;34.25;;;6.60;97.60;;;;;;5073524;28;20213;-70
2020/12/13 06:36:44;;;;;;;49.33;33.93;;;6.70;96.70;;;;;;5074061;28;20259;-70
2020/12/13 06:39:14;;;;;;;54.20;40.35;;;6.70;96.20;;;;;;5074021;28;20169;-70
2020/12/13 06:41:42;;;;;;;67.93;40.03;;;6.60;95.40;;;;;;5073678;28;20256;-70
2020/12/13 06:44:08;;;;;;;65.35;39.30;;;6.60;94.80;;;;;;5073731;28;20177;-70
2020/12/13 06:46:40;;;;;;;46.20;34.38;;;6.60;94.00;;;;;;5073723;28;20675;-70
2020/12/13 06:49:07;;;;;;;44.17;36.80;;;6.70;93.60;;;;;;5073859;28;20210;-70
2020/12/13 06:51:34;;;;;;;49.78;35.05;;;6.70;93.60;;;;;;5074035;28;20252;-70
2020/12/13 06:54:02;;;;;;;55.30;32.63;;;6.70;93.50;;;;;;5073712;28;20172;-70
2020/12/13 06:56:28;;;;;;;55.75;39.88;;;6.70;93.20;;;;;;5073647;28;20197;-70
2020/12/13 06:58:56;;;;;;;47.70;40.85;;;6.70;92.50;;;;;;5073503;28;20177;-70
2020/12/13 07:01:32;;;;;;;50.72;33.15;;;6.70;91.20;;;;;;5073769;28;20295;-70
2020/12/13 07:04:23;;;;;;;53.90;36.55;;;6.70;90.50;;;;;;5073952;28;20169;-70
2020/12/13 07:07:01;;;;;;;55.58;39.08;;;6.70;89.90;;;;;;5073484;28;20250;-70
2020/12/13 07:09:30;;;;;;;45.38;35.00;;;6.70;89.50;;;;;;5073274;28;20153;-70
2020/12/13 07:11:56;;;;;;;51.88;42.15;;;6.70;89.50;;;;;;5077235;28;20259;-70
2020/12/13 07:14:25;;;;;;;40.53;31.80;;;6.70;89.90;;;;;;5077830;28;20248;-70
2020/12/13 07:17:07;;;;;;;50.67;36.10;;;6.70;89.00;;;;;;5077356;28;20189;-70
2020/12/13 07:19:35;;;;;;;52.28;37.03;;;6.70;87.90;;;;;;5077166;28;20169;-70
2020/12/13 07:22:09;;;;;;;52.33;33.80;;;6.70;87.50;;;;;;5077450;28;20173;-70
2020/12/13 07:24:35;;;;;;;55.28;37.17;;;6.70;88.10;;;;;;5077688;28;20169;-70
2020/12/13 07:27:02;;;;;;;59.08;37.05;;;6.70;88.20;;;;;;5077487;28;20653;-70
2020/12/13 07:29:31;;;;;;;55.10;36.63;;;6.70;89.00;;;;;;5077020;28;20559;-70
2020/12/13 07:31:56;;;;;;;50.75;33.95;;;6.70;89.40;;;;;;5077431;28;20639;-70
2020/12/13 07:34:22;;;;;;;49.37;34.80;;;6.70;90.10;;;;;;5077044;28;20189;-70
2020/12/13 07:36:48;;;;;;;56.43;38.23;;;6.70;89.80;;;;;;5077087;28;20189;-70
2020/12/13 07:39:14;;;;;;;52.00;38.00;;;6.70;89.90;;;;;;5076998;28;20619;-70
2020/12/13 07:41:41;;;;;;;56.53;41.57;;;6.70;88.70;;;;;;5077317;28;20178;-70
2020/12/13 07:44:12;;;;;;;49.97;38.65;;;6.70;87.80;;;;;;5076928;28;20493;-70
2020/12/13 07:46:41;;;;;;;59.95;41.88;;;6.80;85.10;;;;;;5076560;28;20208;-70
2020/12/13 07:49:11;;;;;;;73.20;38.17;;;6.80;82.60;;;;;;5076726;28;20205;-70
2020/12/13 07:51:38;;;;;;;64.95;41.95;;;6.80;81.70;;;;;;5076974;28;20509;-70
2020/12/13 07:54:13;;;;;;;69.07;43.10;;;6.80;80.30;;;;;;5077122;28;20252;-70
2020/12/13 07:56:40;;;;;;;54.70;36.05;;;6.80;79.90;;;;;;5076565;28;20647;-70
2020/12/13 07:59:17;;;;;;;61.63;37.10;;;6.80;81.00;;;;;;5076629;28;20643;-70
2020/12/13 08:01:45;;;;;;;54.28;34.13;;;6.80;80.90;;;;;;5076911;28;20168;-70
2020/12/13 08:04:11;;;;;;;50.55;33.33;;;6.70;82.10;;;;;;5076837;28;20223;-70
2020/12/13 08:06:37;;;;;;;58.20;41.40;;;6.70;83.70;;;;;;5076371;28;20224;-70
2020/12/13 08:09:07;;;;;;;74.40;46.50;;;6.70;84.80;;;;;;5076070;28;20601;-70
2020/12/13 08:11:34;;;;;;;63.53;40.55;;;6.70;83.20;;;;;;5076469;28;20164;-70
2020/12/13 08:14:00;;;;;;;68.03;41.70;;;6.70;84.10;;;;;;5076455;28;20170;-70
2020/12/13 08:16:26;;;;;;;54.87;38.70;;;6.70;86.40;;;;;;5076026;28;20208;-70
2020/12/13 08:18:54;;;;;;;72.43;35.03;;;6.70;87.70;;;;;;5076278;28;20177;-70
2020/12/13 08:21:34;;;;;;;60.53;38.17;;;6.70;88.70;;;;;;5076191;28;20238;-70
2020/12/13 08:24:03;;;;;;;71.50;42.60;;;6.80;87.10;;;;;;5075841;28;20169;-70
2020/12/13 08:26:29;;;;;;;66.68;38.72;;;6.80;84.50;;;;;;5076384;28;20208;-70
2020/12/13 08:28:57;;;;;;;65.28;44.92;;;6.80;82.80;;;;;;5075881;28;20170;-71
2020/12/13 08:31:28;;;;;;;65.20;43.00;;;6.80;81.00;;;;;;5076396;28;20166;-70
2020/12/13 08:34:05;;;;;;;66.65;41.00;;;6.80;78.90;;;;;;5075934;28;20589;-70
2020/12/13 08:36:31;;;;;;;56.00;37.83;;;6.80;76.80;;;;;;5075911;28;20242;-70
2020/12/13 08:39:11;;;;;;;93.10;42.95;;;6.90;75.70;;;;;;5075847;28;20177;-69
2020/12/13 08:41:46;;;;;;;74.00;42.80;;;6.90;73.20;;;;;;5076006;28;20184;-69
2020/12/13 08:44:44;;;;;;;72.65;46.10;;;6.90;70.70;;;;;;5074932;28;20173;-70
2020/12/13 08:47:11;;;;;;;80.65;44.17;;;7.00;65.80;;;;;;5041800;28;20331;-70
2020/12/13 08:49:42;;;;;;;86.22;45.00;;;7.00;63.40;;;;;;5075644;28;20175;-70
2020/12/13 08:52:12;;;;;;;57.30;46.20;;;7.00;59.50;;;;;;5074303;28;20227;-70
2020/12/13 08:54:45;;;;;;;57.13;39.20;;;7.00;55.80;;;;;;5075980;28;20680;-70
2020/12/13 08:57:10;;;;;;;52.42;40.50;;;7.10;54.50;;;;;;5075590;28;20626;-70
2020/12/13 08:59:36;;;;;;;95.83;46.20;;;7.10;53.10;;;;;;5075177;28;20260;-70
2020/12/13 09:02:03;;;;;;;78.73;47.80;;;7.10;51.10;;;;;;5075534;28;20623;-69
2020/12/13 09:04:30;;;;;;;59.78;43.90;;;7.20;49.40;;;;;;5075661;28;20603;-69
2020/12/13 09:06:58;;;;;;;70.72;46.80;;;7.20;46.20;;;;;;5075138;28;20292;-70
2020/12/13 09:09:33;;;;;;;71.10;41.38;;;7.20;45.70;;;;;;5082250;28;20272;-69
2020/12/13 09:12:00;;;;;;;72.68;37.88;;;7.30;44.40;;;;;;5095635;28;20187;-69
2020/12/13 09:14:34;;;;;;;71.70;41.63;;;7.30;43.40;;;;;;5095581;28;20252;-69
2020/12/13 09:17:00;;;;;;;74.30;42.05;;;7.30;41.90;;;;;;5095499;28;20184;-69
2020/12/13 09:19:26;;;;;;;77.18;44.80;;;7.30;40.20;;;;;;5095407;28;20176;-69
2020/12/13 09:22:01;;;;;;;85.30;48.40;;;7.30;39.00;;;;;;5095096;28;20169;-69
2020/12/13 09:24:28;;;;;;;68.25;46.33;;;7.30;38.40;;;;;;5095324;28;20194;-69
2020/12/13 09:27:04;;;;;;;64.32;49.17;;;7.40;37.90;;;;;;5095173;28;20262;-70
2020/12/13 09:29:31;;;;;;;71.28;47.60;;;7.40;37.30;;;;;;5095028;28;20173;-70
2020/12/13 09:31:57;;;;;;;70.13;44.80;;;7.40;36.10;;;;;;5095266;28;20690;-69
2020/12/13 09:34:23;;;;;;;62.83;38.97;;;7.40;35.10;;;;;;5094488;28;20180;-69
2020/12/13 09:36:50;;;;;;;71.40;41.13;;;7.40;33.90;;;;;;5094927;28;20197;-70
2020/12/13 09:39:16;;;;;;;60.22;38.83;;;7.40;33.00;;;;;;5094882;28;20251;-69
2020/12/13 09:41:42;;;;;;;75.73;39.70;;;7.50;30.60;;;;;;5095068;28;20203;-69
2020/12/13 09:44:08;;;;;;;63.23;37.27;;;7.50;28.40;;;;;;5095213;28;20600;-69
2020/12/13 09:46:33;;;;;;;71.13;40.40;;;7.50;27.50;;;;;;5093881;28;20465;-70
2020/12/13 09:48:59;;;;;;;65.93;40.30;;;7.60;26.90;;;;;;5086912;28;20679;-70
2020/12/13 09:51:24;;;;;;;66.90;39.60;;;7.60;26.20;;;;;;5088445;28;20196;-69
2020/12/13 09:53:50;;;;;;;63.33;38.50;;;7.70;24.40;;;;;;5083382;28;20169;-69
2020/12/13 09:56:17;;;;;;;64.90;39.03;;;7.70;22.50;;;;;;5092473;28;20271;-69
2020/12/13 09:58:44;;;;;;;60.88;39.70;;;7.70;20.90;;;;;;5094917;28;20256;-69
2020/12/13 10:01:14;;;;;;;63.08;42.67;;;7.70;19.70;;;;;;5089645;28;20661;-69
2020/12/13 10:03:47;;;;;;;72.70;43.28;;;7.80;18.00;;;;;;5089224;28;20263;-70
2020/12/13 10:09:01;;;;;;;66.22;39.75;;;7.90;13.90;;;;;;5087416;28;20180;-69
2020/12/13 10:11:28;;;;;;;56.22;38.08;;;7.90;13.10;;;;;;5080924;28;20173;-70
2020/12/13 10:13:53;;;;;;;59.37;35.07;;;8.00;11.80;;;;;;5089924;28;20214;-70
2020/12/13 10:16:19;;;;;;;61.63;35.90;;;8.00;10.90;;;;;;5092905;28;20430;-70
2020/12/13 10:18:44;;;;;;;53.20;41.93;;;8.00;10.10;;;;;;5093634;28;20180;-70
2020/12/13 10:21:10;;;;;;;60.53;32.57;;;8.10;9.00;;;;;;5094200;28;20176;-69
2020/12/13 10:23:35;;;;;;;53.83;35.30;;;8.10;8.20;;;;;;5091158;28;20184;-69
2020/12/13 10:26:01;;;;;;;51.30;35.80;;;8.00;6.70;;;;;;5081839;28;20273;-70
2020/12/13 10:28:27;;;;;;;54.90;35.60;;;8.00;7.80;;;;;;5082163;28;20252;-70
2020/12/13 10:30:53;;;;;;;50.63;35.80;;;8.00;8.00;;;;;;5082343;28;20411;-70
2020/12/13 10:33:18;;;;;;;65.57;36.30;;;8.00;8.20;;;;;;5084734;28;20538;-70
2020/12/13 10:35:45;;;;;;;50.30;34.97;;;8.00;8.30;;;;;;5084559;28;20191;-69
2020/12/13 10:38:11;;;;;;;52.38;32.13;;;8.00;8.10;;;;;;5081020;28;20550;-70
2020/12/13 10:40:38;;;;;;;51.08;34.13;;;8.00;7.90;;;;;;5087858;28;20233;-70
2020/12/13 10:43:04;;;;;;;43.63;32.30;;;8.10;7.70;;;;;;5094129;28;20251;-69
2020/12/13 10:45:30;;;;;;;51.60;31.25;;;8.00;6.70;;;;;;5093238;28;20193;-70
2020/12/13 10:47:55;;;;;;;55.13;31.80;;;8.00;6.80;;;;;;5094014;28;20498;-69
2020/12/13 10:50:21;;;;;;;47.10;33.67;;;8.00;6.80;;;;;;5093332;28;20406;-69
2020/12/13 10:52:47;;;;;;;56.30;35.20;;;8.10;7.00;;;;;;5094142;28;20175;-69
2020/12/13 10:55:12;;;;;;;52.80;36.07;;;8.10;7.30;;;;;;5093946;28;20172;-70
2020/12/13 10:57:38;;;;;;;47.90;34.80;;;8.20;6.00;;;;;;5093804;28;20614;-70
2020/12/13 11:00:05;;;;;;;54.60;33.43;;;8.20;5.30;;;;;;5093481;28;20672;-69
2020/12/13 11:02:30;;;;;;;44.83;33.30;;;8.20;3.90;;;;;;5087510;28;20169;-69
2020/12/13 11:04:56;;;;;;;54.83;31.20;;;8.20;2.10;;;;;;5080944;28;20168;-69
2020/12/13 11:07:21;;;;;;;41.40;27.30;;;8.20;2.10;;;;;;5073460;28;20216;-70
2020/12/13 11:09:47;;;;;;;46.93;30.67;;;8.10;1.90;;;;;;5070904;28;20631;-69
2020/12/13 11:12:12;;;;;;;47.53;30.57;;;8.10;3.30;;;;;;5071114;28;20165;-70
2020/12/13 11:14:38;;;;;;;44.67;31.10;;;8.10;3.50;;;;;;5069760;28;20374;-69
2020/12/13 11:17:04;;;;;;;43.20;34.23;;;8.10;3.10;;;;;;5071191;28;20239;-69
2020/12/13 11:19:29;;;;;;;48.53;34.20;;;8.10;4.10;;;;;;5070905;28;20177;-69
2020/12/13 11:21:57;;;;;;;51.80;32.97;;;8.10;4.20;;;;;;5070693;28;20284;-69
2020/12/13 11:24:22;;;;;;;42.05;32.78;;;8.10;4.20;;;;;;5071078;28;20166;-69
2020/12/13 11:26:48;;;;;;;47.33;33.67;;;8.00;6.20;;;;;;5070720;28;20216;-69
2020/12/13 11:29:14;;;;;;;40.30;28.90;;;8.00;7.80;;;;;;5070831;28;20662;-69
2020/12/13 11:31:39;;;;;;;38.23;28.97;;;7.90;8.30;;;;;;5071082;28;20177;-69
2020/12/13 11:34:05;;;;;;;36.20;29.10;;;7.90;8.30;;;;;;5071011;28;20218;-69
2020/12/13 11:36:30;;;;;;;39.27;33.00;;;8.00;8.20;;;;;;5070418;28;20204;-69
2020/12/13 11:38:56;;;;;;;36.47;32.63;;;7.90;6.90;;;;;;5070888;28;20177;-69
2020/12/13 11:41:28;;;;;;;34.37;27.97;;;7.90;7.70;;;;;;5069334;28;20223;-69
2020/12/13 11:43:55;;;;;;;37.05;31.50;;;7.90;8.50;;;;;;5070972;28;20523;-69
2020/12/13 11:46:20;;;;;;;39.60;35.58;;;7.90;8.70;;;;;;5070747;28;20275;-70
2020/12/13 11:48:46;;;;;;;37.97;32.13;;;8.00;8.80;;;;;;5070997;28;20208;-70
2020/12/13 11:51:11;;;;;;;41.93;31.20;;;8.00;8.60;;;;;;5070764;28;20218;-69
2020/12/13 11:53:37;;;;;;;33.97;30.30;;;7.90;8.90;;;;;;5070631;28;20176;-70
2020/12/13 11:56:03;;;;;;;34.30;30.60;;;7.90;9.80;;;;;;5071004;28;20249;-69
2020/12/13 11:58:29;;;;;;;34.83;29.23;;;7.90;9.50;;;;;;5074267;28;20181;-70
2020/12/13 12:00:55;;;;;;;33.13;29.63;;;7.80;9.60;;;;;;5074040;28;20185;-70
2020/12/13 12:03:20;;;;;;;30.90;27.77;;;7.80;10.10;;;;;;5074230;28;20173;-70
2020/12/13 12:05:46;;;;;;;35.83;30.70;;;7.80;12.10;;;;;;5074025;28;20789;-69
2020/12/13 12:08:11;;;;;;;33.07;29.70;;;7.70;13.80;;;;;;5074080;28;20165;-69
2020/12/13 12:10:37;;;;;;;35.30;30.10;;;7.70;19.00;;;;;;5073884;28;20185;-69
2020/12/13 12:13:03;;;;;;;32.33;29.23;;;7.70;16.70;;;;;;5074009;28;20520;-69
2020/12/13 12:15:28;;;;;;;35.47;31.63;;;7.60;17.00;;;;;;5074043;28;20177;-71
2020/12/13 12:17:55;;;;;;;36.70;33.17;;;7.50;19.00;;;;;;5073039;28;20419;-71
2020/12/13 12:20:26;;;;;;;35.90;32.10;;;7.50;21.00;;;;;;5074655;28;20162;-71
2020/12/13 12:22:53;;;;;;;36.60;33.33;;;7.40;22.50;;;;;;5074500;28;20188;-69
2020/12/13 12:25:18;;;;;;;34.90;31.20;;;7.40;23.40;;;;;;5073959;28;20174;-69
2020/12/13 12:27:44;;;;;;;36.63;33.03;;;7.40;22.90;;;;;;5074051;28;20176;-69
2020/12/13 12:30:09;;;;;;;35.07;32.17;;;7.40;24.00;;;;;;5073837;28;20674;-69
2020/12/13 12:32:35;;;;;;;32.83;27.00;;;7.40;24.60;;;;;;5074087;28;20238;-69
2020/12/13 12:35:00;;;;;;;36.43;31.33;;;7.40;26.10;;;;;;5073528;28;20184;-69
2020/12/13 12:37:26;;;;;;;42.33;33.10;;;7.40;26.30;;;;;;5073174;28;20216;-69
2020/12/13 12:39:52;;;;;;;36.60;32.80;;;7.50;26.70;;;;;;5072255;28;20627;-69
2020/12/13 12:42:17;;;;;;;31.90;27.07;;;7.50;26.20;;;;;;5072772;28;20219;-69
2020/12/13 12:44:45;;;;;;;30.97;27.90;;;7.60;26.00;;;;;;5083142;28;20266;-68